Terminal Aerodrome Forecast
Issued by NWS Greer, SC

Home | Current Version | Previous Version | Text Only | Print | Product List | Glossary On
Versions: 1 2 3 4 5 6 7 8 9 10 11 12
167
FTUS42 KGSP 152328
TAFGSP
TAF
KGSP 152328Z 1600/1624 35005KT P6SM SCT200
     FM160300 30003KT P6SM FEW250
     FM161600 23006KT P6SM SCT250=

USA.gov is the U.S. government's official web portal to all federal, state and local government web resources and services.